Terminal Aerodrome Forecast
Issued by NWS

Home | Current Version | Previous Version | Graphics & Text | Print | Product List | Glossary On
Versions: 1 2 3 4 5 6 7 8 9 10 11 12 13 14 15 16 17 18 19 20
000
FTUS43 KABR 231700
TAFATY
TAF
KATY 231736Z 2318/2418 19011KT P6SM SKC
     FM240000 18004KT P6SM SCT250
     FM240800 VRB03KT 3SM BR SCT250
      TEMPO 2408/2412 1SM BR
     FM241400 18006KT P6SM SKC=

USA.gov is the U.S. government's official web portal to all federal, state and local government web resources and services.